INFORMACIÓN METAR y TAF
METAR FOR SPZO
ADDS - METARS form results

(1956 UTC 26 May 2022)
Data provider http://aviationweather.gov/metar/data/
 
METAR text: SPZO 261930Z 01007KT 330V040 9999 SCT050 17/02 Q1029 NOSIG RMK TCU QUAD N BIRD HAZARD RWY 10/28 PP000
Conditions at: SPZO (CUZCO/VELAZCO AS, PE) observed 1930 UTC 26 May 2022
Temperature: 17.0°C (63°F)
Dewpoint: 2.0°C (36°F) [RH = 36%]
Pressure (altimeter): 30.38 inches Hg (1029.0 mb)
Winds: from the N (10 degrees) at 8 MPH (7 knots; 3.6 m/s)
Visibility: 6 or more miles (10+ km)
Ceiling: at least 12,000 feet AGL
Clouds: scattered clouds at 5000 feet AGL
Weather: no significant weather observed at this time

METAR text: SPZO 261900Z 01011KT 340V040 9999 SCT050 17/03 Q1029 NOSIG RMK TCU QUAD N BIRD HAZARD RWY 10/28 PP000
Conditions at: SPZO (CUZCO/VELAZCO AS, PE) observed 1900 UTC 26 May 2022
Temperature: 17.0°C (63°F)
Dewpoint: 3.0°C (37°F) [RH = 39%]
Pressure (altimeter): 30.38 inches Hg (1029.0 mb)
Winds: from the N (10 degrees) at 13 MPH (11 knots; 5.7 m/s)
Visibility: 6 or more miles (10+ km)
Ceiling: at least 12,000 feet AGL
Clouds: scattered clouds at 5000 feet AGL
Weather: no significant weather observed at this time

Forecast for: SPZO (CUZCO/VELAZCO AS, PE)
Text: TAF SPZO 261700Z 2618/2718 VRB03KT 9999 SCT050 TX21/2619Z TN02/2711Z
Forecast period: 1800 UTC 26 May 2022 to 1800 UTC 27 May 2022
Forecast type: FROM: standard forecast or significant change
Winds: variable direction winds at 3 MPH (3 knots; 1.5 m/s)
Visibility: 6 or more miles (10+ km)
Ceiling: at least 12,000 feet AGL
Clouds: scattered clouds at 5000 feet AGL
Weather: no significant weather forecast for this period
Text: TEMPO 2618/2622 29010KT
Forecast period: 1800 to 2200 UTC 26 May 2022
Forecast type: TEMPORARY: The following changes expected for less than half the time period
Winds: from the WNW (290 degrees) at 12 MPH (10 knots; 5.1 m/s)
Visibility: missing
Ceiling: unknown
Clouds: missing
Weather: no significant weather forecast for this period

 MAPA DE AEROPUERTO

 INFORMACIÓN DE PISTA
Pista 10 Longitud 11146 ft Ancho 148 ft
Elevación 10860 ft Umbral desplazado 0 ft Rumbo de pista 96
Pista 28 Longitud 11146 ft Ancho 148 ft
Elevación 10702 ft Umbral desplazado 0 ft Rumbo de pista 276

 FRECUANCIAS DEL AEROPUERTO
Tipo APP Nombre CUSCO APP Frecuencia 120.6 MHZ
Tipo ATIS Nombre ATIS Frecuencia 127 MHZ
Tipo GND Nombre GND Frecuencia 121.9 MHZ
Tipo TWR Nombre CUSCO TWR Frecuencia 118.1 MHZ

 RADIO AYUDAS DEL AEROPUERTO
Tipo VOR-DME Nombre Urcos Frecuencia 115600 KHZ
Tipo VOR-DME Nombre Cusco Frecuencia 114900 KHZ



Powered by Virtual Airlines Manager [v2.6.2]